Map

Track Data

SID SEASON NUMBER BASIN SUBBASIN NAME ISO_TIME NATURE LAT LON WMO_WIND WMO_PRES WMO_AGENCY TRACK_TYPE DIST2LAND LANDFALL IFLAG USA_AGENCY USA_ATCF_ID USA_LAT USA_LON USA_RECORD USA_STATUS USA_WIND USA_PRES USA_SSHS USA_R34_NE USA_R34_SE USA_R34_SW USA_R34_NW USA_R50_NE USA_R50_SE USA_R50_SW USA_R50_NW USA_R64_NE USA_R64_SE USA_R64_SW USA_R64_NW USA_POCI USA_ROCI USA_RMW USA_EYE TOKYO_LAT TOKYO_LON TOKYO_GRADE TOKYO_WIND TOKYO_PRES TOKYO_R50_DIR TOKYO_R50_LONG TOKYO_R50_SHORT TOKYO_R30_DIR TOKYO_R30_LONG TOKYO_R30_SHORT TOKYO_LAND CMA_LAT CMA_LON CMA_CAT CMA_WIND CMA_PRES HKO_LAT HKO_LON HKO_CAT HKO_WIND HKO_PRES NEWDELHI_LAT NEWDELHI_LON NEWDELHI_GRADE NEWDELHI_WIND NEWDELHI_PRES NEWDELHI_CI NEWDELHI_DP NEWDELHI_POCI REUNION_LAT REUNION_LON REUNION_TYPE REUNION_WIND REUNION_PRES REUNION_TNUM REUNION_CI REUNION_RMW REUNION_R34_NE REUNION_R34_SE REUNION_R34_SW REUNION_R34_NW REUNION_R50_NE REUNION_R50_SE REUNION_R50_SW REUNION_R50_NW REUNION_R64_NE REUNION_R64_SE REUNION_R64_SW REUNION_R64_NW BOM_LAT BOM_LON BOM_TYPE BOM_WIND BOM_PRES BOM_TNUM BOM_CI BOM_RMW BOM_R34_NE BOM_R34_SE BOM_R34_SW BOM_R34_NW BOM_R50_NE BOM_R50_SE BOM_R50_SW BOM_R50_NW BOM_R64_NE BOM_R64_SE BOM_R64_SW BOM_R64_NW BOM_ROCI BOM_POCI BOM_EYE BOM_POS_METHOD BOM_PRES_METHOD NADI_LAT NADI_LON NADI_CAT NADI_WIND NADI_PRES WELLINGTON_LAT WELLINGTON_LON WELLINGTON_WIND WELLINGTON_PRES DS824_LAT DS824_LON DS824_STAGE DS824_WIND DS824_PRES TD9636_LAT TD9636_LON TD9636_STAGE TD9636_WIND TD9636_PRES TD9635_LAT TD9635_LON TD9635_WIND TD9635_PRES TD9635_ROCI NEUMANN_LAT NEUMANN_LON NEUMANN_CLASS NEUMANN_WIND NEUMANN_PRES MLC_LAT MLC_LON MLC_CLASS MLC_WIND MLC_PRES USA_GUST BOM_GUST BOM_GUST_PER REUNION_GUST REUNION_GUST_PER USA_SEAHGT USA_SEARAD_NE USA_SEARAD_SE USA_SEARAD_SW USA_SEARAD_NW STORM_SPEED STORM_DIR
1998096S13071 1998 22 SI MM GEMMA 1998-04-06 06:00:00 TS -12.7333 70.8000 20 1004 reunion main 1623 1617 O____O______O_ jtwc_sh SH321998 -12.6000 71.0000 25 -1 -12.8000 70.7000 2 20 1004 1.50000 1.50000 -12.8000 70.7000 TC 20 1004 2 201
1998096S13071 1998 22 SI MM GEMMA 1998-04-06 09:00:00 TS -12.8441 70.7584 main 1617 1605 P____P______P_ SH321998 -12.7475 70.9900 27 -1 -12.8924 70.6426 2 22 1003 -12.8924 70.6426 TC 22 1003 2 175
1998096S13071 1998 22 SI MM GEMMA 1998-04-06 12:00:00 TS -12.9667 70.8000 25 1002 reunion main 1605 1605 O____O______O_ jtwc_sh SH321998 -12.9000 71.0000 30 -1 -13.0000 70.7000 2 25 1002 2.00000 2.00000 -13.0000 70.7000 TC 25 1002 3 142
1998096S13071 1998 22 SI MM GEMMA 1998-04-06 15:00:00 TS -13.1092 70.9708 main 1618 1612 P____P______P_ SH321998 -13.0575 71.0425 30 -1 -13.1351 70.9349 2 25 1002 -13.1351 70.9349 TC 25 1002 5 130
1998096S13071 1998 22 SI MM GEMMA 1998-04-06 18:00:00 TS -13.2667 71.1667 25 1002 reunion main 1625 1620 O____O______O_ jtwc_sh SH321998 -13.2000 71.1000 30 -1 -13.3000 71.2000 2 25 1002 2.00000 2.00000 -13.3000 71.2000 TC 25 1002 5 140
1998096S13071 1998 22 SI MM GEMMA 1998-04-06 21:00:00 TS -13.4608 71.2725 main 1624 1619 P____P______P_ SH321998 -13.3075 71.1425 30 -1 -13.5375 71.3375 2 25 1001 -13.5375 71.3375 TC 27 1001 4 154
1998096S13071 1998 22 SI MM GEMMA 1998-04-07 00:00:00 TS -13.6000 71.3333 25 1000 reunion main 1619 1619 O____O______O_ jtwc_sh SH321998 -13.4000 71.2000 30 -1 -13.7000 71.4000 2 25 1000 2.00000 2.00000 -13.7000 71.4000 TC 30 1000 2 147
1998096S13071 1998 22 SI MM GEMMA 1998-04-07 03:00:00 TS -13.6017 71.3592 main 1628 1628 P____P______P_ SH321998 -13.5150 71.2925 30 -1 -13.6450 71.3925 2 25 1000 -13.6450 71.3925 TC 30 1000 1 47
1998096S13071 1998 22 SI MM GEMMA 1998-04-07 06:00:00 TS -13.5333 71.4000 25 1000 reunion main 1633 1633 O____O______O_ jtwc_sh SH321998 -13.6000 71.4000 30 -1 -13.5000 71.4000 2 25 1000 2.00000 2.00000 -13.5000 71.4000 TC 30 1000 2 44
1998096S13071 1998 22 SI MM GEMMA 1998-04-07 09:00:00 TS -13.4467 71.5184 main 1648 1648 P____P______P_ SH321998 -13.6150 71.5000 30 -1 -13.3625 71.5276 2 27 998 -13.3625 71.5276 TC 32 998 3 63
1998096S13071 1998 22 SI MM GEMMA 1998-04-07 12:00:00 TS -13.4000 71.6667 30 996 reunion main 1667 1667 O____O______O_ jtwc_sh SH321998 -13.6000 71.6000 30 -1 -13.3000 71.7000 2 30 996 2.50000 2.50000 -13.3000 71.7000 TC 35 996 3 95
1998096S13071 1998 22 SI MM GEMMA 1998-04-07 15:00:00 TS -13.4750 71.8224 main 1671 1671 P____P______P_ SH321998 -13.5850 71.7075 30 -1 -13.4200 71.8799 2 32 994 -13.4200 71.8799 TC 40 994 3 127
1998096S13071 1998 22 SI MM GEMMA 1998-04-07 18:00:00 TS -13.6000 71.9333 35 992 reunion main 1675 1675 O____O______O_ jtwc_sh SH321998 -13.6000 71.8000 30 -1 -13.6000 72.0000 3 35 992 3.00000 3.00000 -13.6000 72.0000 TC 45 992 3 151
1998096S13071 1998 22 SI MM GEMMA 1998-04-07 21:00:00 TS -13.7100 71.9567 main 1679 1665 P____P______P_ SH321998 -13.6850 71.8650 37 0 -13.7225 72.0025 3 37 990 -13.7225 72.0025 TC 47 990 2 193
1998096S13071 1998 22 SI MM GEMMA 1998-04-08 00:00:00 TS -13.8000 71.9000 40 988 reunion main 1665 1655 O____O______O_ jtwc_sh SH321998 -13.8000 71.9000 45 0 -13.8000 71.9000 3 40 988 3.00000 3.00000 -13.8000 71.9000 TC 50 988 2 232
1998096S13071 1998 22 SI MM GEMMA 1998-04-08 03:00:00 TS -13.8383 71.7891 main 1655 1631 P____P______P_ SH321998 -13.9000 71.9075 45 0 -13.8075 71.7300 3 40 988 -13.8075 71.7300 TC 50 988 3 256
1998096S13071 1998 22 SI MM GEMMA 1998-04-08 06:00:00 TS -13.8667 71.6333 40 988 reunion main 1631 1621 O____O______O_ jtwc_sh SH321998 -14.0000 71.9000 45 0 -13.8000 71.5000 3 40 988 3.00000 3.00000 -13.8000 71.5000 TC 50 988 3 255
1998096S13071 1998 22 SI MM GEMMA 1998-04-08 09:00:00 TS -13.9234 71.4567 main 1621 1597 P____P______P_ SH321998 -14.1000 71.9000 47 0 -13.8350 71.2350 3 40 988 -13.8350 71.2350 TC 50 988 4 248
1998096S13071 1998 22 SI MM GEMMA 1998-04-08 12:00:00 TS -14.0000 71.3000 40 988 reunion main 1597 1582 O____O______O_ jtwc_sh SH321998 -14.2000 71.9000 50 0 -13.9000 71.0000 3 40 988 2.50000 3.00000 -13.9000 71.0000 TC 50 988 3 236
1998096S13071 1998 22 SI MM GEMMA 1998-04-08 15:00:00 TS -14.0875 71.2008 main 1582 1577 P____P______P_ SH321998 -14.2925 71.8925 50 0 -13.9850 70.8550 3 40 988 -13.9850 70.8550 TC 50 988 2 214
1998096S13071 1998 22 SI MM GEMMA 1998-04-08 18:00:00 TS -14.2000 71.1667 40 988 reunion main 1577 1572 O____O______O_ jtwc_sh SH321998 -14.4000 71.9000 50 0 -14.1000 70.8000 3 40 988 2.50000 3.00000 -14.1000 70.8000 TC 50 988 3 187
1998096S13071 1998 22 SI MM GEMMA 1998-04-08 21:00:00 TS -14.3449 71.1692 main 1572 1562 P____P______P_ SH321998 -14.5500 71.9425 52 0 -14.2424 70.7826 3 40 988 -14.2424 70.7826 TC 50 988 3 163
1998096S13071 1998 22 SI MM GEMMA 1998-04-09 00:00:00 TS -14.5000 71.2667 40 988 reunion main 1571 1566 O____O______O_ jtwc_sh SH321998 -14.7000 72.0000 55 0 -14.4000 70.9000 3 40 988 3.00000 3.00000 -14.4000 70.9000 TC 50 988 4 134
1998096S13071 1998 22 SI MM GEMMA 1998-04-09 03:00:00 TS -14.6459 71.4866 main 1586 1581 P____P______P_ SH321998 -14.8075 72.0350 55 0 -14.5651 71.2124 3 40 988 -14.5651 71.2124 TC 50 988 6 119
1998096S13071 1998 22 SI MM GEMMA 1998-04-09 06:00:00 TS -14.7667 71.7667 40 988 reunion main 1606 1606 O____O______O_ jtwc_sh SH321998 -14.9000 72.1000 55 0 -14.7000 71.6000 3 40 988 3.00000 3.00000 -14.7000 71.6000 TC 50 988 6 110
1998096S13071 1998 22 SI MM GEMMA 1998-04-09 09:00:00 TS -14.8333 72.0317 main 1625 1625 P____P______P_ SH321998 -15.0000 72.2350 57 0 -14.7500 71.9301 3 42 986 -14.7500 71.9301 TC 52 986 5 105
1998096S13071 1998 22 SI MM GEMMA 1998-04-09 12:00:00 TS -14.9000 72.2667 45 985 reunion main 1650 1646 O____O______O_ jtwc_sh SH321998 -15.1000 72.4000 60 0 -14.8000 72.2000 3 45 985 3.50000 3.50000 -14.8000 72.2000 TC 55 985 4 118
1998096S13071 1998 22 SI MM GEMMA 1998-04-09 15:00:00 TS -15.0358 72.4217 main 1656 1651 P____P______P_ SH321998 -15.2075 72.5350 60 0 -14.9499 72.3650 3 45 985 -14.9499 72.3650 TC 55 985 4 133
1998096S13071 1998 22 SI MM GEMMA 1998-04-09 18:00:00 TS -15.1667 72.5667 45 985 reunion main 1667 1667 O____O______O_ jtwc_sh SH321998 -15.3000 72.7000 60 0 -15.1000 72.5000 3 45 985 3.50000 3.50000 -15.1000 72.5000 TC 55 985 4 122
1998096S13071 1998 22 SI MM GEMMA 1998-04-09 21:00:00 TS -15.2341 72.7559 main 1687 1682 P____P______P_ SH321998 -15.3575 72.9275 60 0 -15.1724 72.6700 3 45 985 -15.1724 72.6700 TC 55 985 4 103
1998096S13071 1998 22 SI MM GEMMA 1998-04-10 00:00:00 TS -15.2667 73.0000 45 985 reunion main 1702 1702 O____O______O_ jtwc_sh SH321998 -15.4000 73.2000 60 0 -15.2000 72.9000 3 45 985 3.00000 3.50000 -15.2000 72.9000 TC 55 985 5 96
1998096S13071 1998 22 SI MM GEMMA 1998-04-10 03:00:00 TS -15.2858 73.3109 main 1732 1732 P____P______P_ SH321998 -15.4575 73.4925 60 0 -15.2000 73.2201 3 45 985 -15.2000 73.2201 TC 55 985 6 93
1998096S13071 1998 22 SI MM GEMMA 1998-04-10 06:00:00 TS -15.3000 73.6667 45 985 reunion main 1773 1773 O____O______O_ jtwc_sh SH321998 -15.5000 73.8000 60 0 -15.2000 73.6000 3 45 985 3.00000 3.50000 -15.2000 73.6000 TC 55 985 7 94
1998096S13071 1998 22 SI MM GEMMA 1998-04-10 09:00:00 TS -15.3308 74.0333 main 1803 1803 P____P______P_ SH321998 -15.5075 74.1000 62 0 -15.2425 74.0000 3 45 985 -15.2425 74.0000 TC 55 985 7 95
1998096S13071 1998 22 SI MM GEMMA 1998-04-10 12:00:00 TS -15.3667 74.4000 45 985 reunion main 1839 1839 O____O______O_ jtwc_sh SH321998 -15.5000 74.4000 65 1 -15.3000 74.4000 3 45 985 3.00000 3.50000 -15.3000 74.4000 TC 55 985 7 97
1998096S13071 1998 22 SI MM GEMMA 1998-04-10 15:00:00 TS -15.4099 74.7408 main 1869 1869 P____P______P_ SH321998 -15.5149 74.6924 67 1 -15.3574 74.7650 3 42 986 -15.3574 74.7650 TC 52 986 6 96
1998096S13071 1998 22 SI MM GEMMA 1998-04-10 18:00:00 TS -15.4333 75.0667 40 988 reunion main 1910 1910 O____O______O_ jtwc_sh SH321998 -15.5000 75.0000 70 1 -15.4000 75.1000 3 40 988 3.00000 3.00000 -15.4000 75.1000 TC 50 988 6 91
1998096S13071 1998 22 SI MM GEMMA 1998-04-10 21:00:00 TS -15.4199 75.3733 main 1940 1940 P____P______P_ SH321998 -15.4299 75.3350 70 1 -15.4149 75.3925 3 40 988 -15.4149 75.3925 TC 50 988 6 84
1998096S13071 1998 22 SI MM GEMMA 1998-04-11 00:00:00 TS -15.3667 75.7000 40 988 reunion main 1971 1971 O____O______O_ jtwc_sh SH321998 -15.3000 75.7000 70 1 -15.4000 75.7000 3 40 988 3.00000 3.00000 -15.4000 75.7000 TC 50 988 7 79
1998096S13071 1998 22 SI MM GEMMA 1998-04-11 03:00:00 TS -15.2793 76.1100 main 2015 2015 P____P______P_ SH321998 -15.1076 76.1151 67 1 -15.3651 76.1075 3 37 990 -15.3651 76.1075 TC 47 990 8 75
1998096S13071 1998 22 SI MM GEMMA 1998-04-11 06:00:00 TS -15.1667 76.5000 35 992 reunion main 2059 2059 O____O______O_ jtwc_sh SH321998 -14.9000 76.5000 65 1 -15.3000 76.5000 3 35 992 2.50000 3.00000 -15.3000 76.5000 TC 45 992 7 72
1998096S13071 1998 22 SI MM GEMMA 1998-04-11 09:00:00 TS -15.0550 76.8075 main 2093 2093 P____P______P_ SH321998 -14.7200 76.8025 65 1 -15.2225 76.8100 3 35 992 -15.2225 76.8100 TC 45 992 5 64
1998096S13071 1998 22 SI MM GEMMA 1998-04-11 12:00:00 TS -14.9333 77.0000 35 992 reunion main 2121 2121 O____O______O_ jtwc_sh SH321998 -14.6000 77.0000 65 1 -15.1000 77.0000 3 35 992 2.00000 3.00000 -15.1000 77.0000 TC 45 992 4 40
1998096S13071 1998 22 SI MM GEMMA 1998-04-11 15:00:00 TS -14.7825 77.0416 main 2125 2125 P____P______P_ SH321998 -14.5775 77.0799 65 1 -14.8850 77.0224 3 31 994 -14.8850 77.0224 TC 40 994 3 6
1998096S13071 1998 22 SI MM GEMMA 1998-04-11 18:00:00 TS -14.6667 77.0333 28 997 reunion main 2128 2128 O____O______O_ jtwc_sh SH321998 -14.6000 77.1000 65 1 -14.7000 77.0000 2 28 997 2.00000 2.50000 -14.7000 77.0000 TC 35 997 2 27
1998096S13071 1998 22 SI MM GEMMA 1998-04-11 21:00:00 TS -14.6417 77.1117 main 2142 2142 P____P______P_ SH321998 -14.6000 77.1500 65 1 -14.6625 77.0925 2 26 998 -14.6625 77.0925 TC 32 998 2 90
1998096S13071 1998 22 SI MM GEMMA 1998-04-12 00:00:00 TS -14.6667 77.2000 25 1000 reunion main 2149 2149 O____O______O_ jtwc_sh SH321998 -14.6000 77.2000 65 1 -14.7000 77.2000 2 25 1000 2.00000 2.00000 -14.7000 77.2000 TC 30 1000 1 111
1998096S13071 1998 22 SI MM GEMMA 1998-04-12 03:00:00 TS -14.6950 77.2550 main 2159 2159 P____P______P_ SH321998 -14.6000 77.2500 62 0 -14.7425 77.2575 2 25 1000 -14.7425 77.2575 TC 30 1000 1 124
1998096S13071 1998 22 SI MM GEMMA 1998-04-12 06:00:00 TS -14.7333 77.3000 25 1000 reunion main 2159 2155 O____O______O_ jtwc_sh SH321998 -14.6000 77.3000 60 0 -14.8000 77.3000 2 25 1000 2.00000 2.00000 -14.8000 77.3000 TC 30 1000 1 130
1998096S13071 1998 22 SI MM GEMMA 1998-04-12 09:00:00 TS -14.7667 77.3500 main 2165 2165 P____P______P_ SH321998 -14.6000 77.3500 57 0 -14.8500 77.3500 2 25 1000 -14.8500 77.3500 TC 30 1000 1 124
1998096S13071 1998 22 SI MM GEMMA 1998-04-12 12:00:00 TS -14.8000 77.4000 25 1000 reunion main 2165 2165 O____O______O_ jtwc_sh SH321998 -14.6000 77.4000 55 0 -14.9000 77.4000 2 25 1000 2.00000 2.00000 -14.9000 77.4000 TC 30 1000 1 122
1998096S13071 1998 22 SI MM GEMMA 1998-04-12 15:00:00 TS -14.8333 77.4550 main 2175 2172 P____P______P_ SH321998 -14.6000 77.4500 52 0 -14.9500 77.4575 2 25 1000 -14.9500 77.4575 TC 30 1000 1 124
1998096S13071 1998 22 SI MM GEMMA 1998-04-12 18:00:00 TS -14.8667 77.5000 25 1000 reunion main 2172 2172 O____O______O_ jtwc_sh SH321998 -14.6000 77.5000 50 0 -15.0000 77.5000 2 25 1000 2.00000 2.00000 -15.0000 77.5000 TC 30 1000 1 136
1998096S13071 1998 22 SI MM GEMMA 1998-04-12 21:00:00 TS -14.9025 77.5217 main 2172 2172 P____P______P_ SH321998 -14.6075 77.5500 47 0 -15.0500 77.5075 2 25 1000 -15.0500 77.5075 TC 30 1000 1 147
1998096S13071 1998 22 SI MM GEMMA 1998-04-13 00:00:00 TS -14.9333 77.5333 25 1000 reunion main 2172 2172 O____O______O_ jtwc_sh SH321998 -14.6000 77.6000 45 0 -15.1000 77.5000 2 25 1000 2.00000 2.00000 -15.1000 77.5000 TC 30 1000 1 151
1998096S13071 1998 22 SI MM GEMMA 1998-04-13 03:00:00 TS -14.9625 77.5625 main 2178 2178 P____P______P_ SH321998 -14.5575 77.6575 45 0 -15.1650 77.5150 2 25 1001 -15.1650 77.5150 TC 27 1001 0 127
1998096S13071 1998 22 SI MM GEMMA 1998-04-13 06:00:00 TS -14.9667 77.5667 25 1002 reunion main 2178 2168 O____O______O_ jtwc_sh SH321998 -14.5000 77.7000 45 0 -15.2000 77.5000 2 25 1002 2.00000 2.00000 -15.2000 77.5000 TC 25 1002 1 303
1998096S13071 1998 22 SI MM GEMMA 1998-04-13 09:00:00 TS -14.9317 77.5150 main 2172 2161 P____P______P_ SH321998 -14.4500 77.7300 45 0 -15.1725 77.4075 2 25 1002 -15.1725 77.4075 TC 25 1002 2 308
1998096S13071 1998 22 SI MM GEMMA 1998-04-13 12:00:00 TS -14.8667 77.4333 25 1002 reunion main 2161 2161 O____O______O_ jtwc_sh SH321998 -14.4000 77.7000 45 0 -15.1000 77.3000 2 25 1002 1.50000 2.00000 -15.1000 77.3000 TC 25 1002 2 313
1998096S13071 1998 22 SI MM GEMMA 1998-04-13 15:00:00 TS -14.7883 77.3575 main 2165 2155 P____P______P_ SH321998 -14.3500 77.5725 42 0 -15.0075 77.2500 2 25 1002 -15.0075 77.2500 TC 25 1002 2 315
1998096S13071 1998 22 SI MM GEMMA 1998-04-13 18:00:00 TS -14.7000 77.2667 25 1002 reunion main 2159 2149 O____O______O_ jtwc_sh SH321998 -14.3000 77.4000 40 0 -14.9000 77.2000 2 25 1002 1.50000 2.00000 -14.9000 77.2000 TC 25 1002 3 314
1998096S13071 1998 22 SI MM GEMMA 1998-04-13 21:00:00 TS -14.6042 77.1600 main 2152 2136 P____P______P_ SH321998 -14.2425 77.2500 37 0 -14.7850 77.1150 2 22 1003 -14.7850 77.1150 TC 22 1003 3 306
1998096S13071 1998 22 SI MM GEMMA 1998-04-14 00:00:00 TS -14.5333 77.0333 20 1004 reunion main 2136 2126 O____O______O_ jtwc_sh SH321998 -14.2000 77.1000 35 0 -14.7000 77.0000 2 20 1004 9.90000 1.50000 -14.7000 77.0000 TC 20 1004 3 288
1998096S13071 1998 22 SI MM GEMMA 1998-04-14 03:00:00 TS -14.5208 76.8984 main 2126 2106 P____P______P_ SH321998 -14.1925 76.9650 35 0 -14.6850 76.8650 2 20 1004 -14.6850 76.8650 TC 20 1004 3 270
1998096S13071 1998 22 SI MM GEMMA 1998-04-14 06:00:00 TS -14.5333 76.7333 20 1004 reunion main 2106 2086 O____O______O_ jtwc_sh SH321998 -14.2000 76.8000 35 0 -14.7000 76.7000 2 20 1004 9.90000 1.50000 -14.7000 76.7000 TC 20 1004 4 268
1998096S13071 1998 22 SI MM GEMMA 1998-04-14 09:00:00 TS -14.5308 76.5367 main 2086 2066 P____P______P_ SH321998 -14.1925 76.5650 35 0 -14.7000 76.5225 2 20 1004 -14.7000 76.5225 TC 20 1004 4 270
1998096S13071 1998 22 SI MM GEMMA 1998-04-14 12:00:00 TS -14.5333 76.3000 20 1004 reunion main 2066 2035 O____O______O_ jtwc_sh SH321998 -14.2000 76.3000 35 0 -14.7000 76.3000 2 20 1004 9.90000 1.50000 -14.7000 76.3000 TC 20 1004 5 269
1998096S13071 1998 22 SI MM GEMMA 1998-04-14 15:00:00 TS -14.5400 76.0117 main 2035 2001 P____P______P_ SH321998 -14.2500 76.0350 32 -1 -14.6851 76.0000 2 1004 -14.6851 76.0000 TC 20 1004 6 264
1998096S13071 1998 22 SI MM GEMMA 1998-04-14 18:00:00 TS -14.5909 75.7273 1005 reunion main 2001 1977 O____O______O_ jtwc_sh SH321998 -14.3000 75.8000 30 -1 -14.7000 75.7000 6 1005 9.90000 -14.7000 75.7000 TC 20 1005 5 255
1998096S13071 1998 22 SI MM GEMMA 1998-04-14 21:00:00 TS -14.6664 75.5259 main 1977 1953 P____P______P_ SH321998 -14.3125 75.6300 30 -1 -14.7549 75.4999 6 -14.7549 75.4999 TC 22 5 238
1998096S13071 1998 22 SI MM GEMMA 1998-04-15 00:00:00 TS -14.8333 75.3222 reunion main 1953 1907 O____O______O_ jtwc_sh SH321998 -14.3000 75.5000 30 -1 -14.9000 75.3000 6 9.90000 -14.9000 75.3000 TC 25 7 224
1998096S13071 1998 22 SI MM GEMMA 1998-04-15 03:00:00 TS -15.1775 75.0151 main 1907 1866 _____P______P_ SH321998 -1 -15.1775 75.0151 6 -15.1775 75.0151 TC 25 9 222
1998096S13071 1998 22 SI MM GEMMA 1998-04-15 06:00:00 TS -15.5000 74.7000 reunion main 1866 1824 _____O______O_ -1 -15.5000 74.7000 6 9.90000 -15.5000 74.7000 TC 25 9 225
1998096S13071 1998 22 SI MM GEMMA 1998-04-15 09:00:00 TS -15.7875 74.3776 main 1824 1787 _____P______P_ -1 -15.7875 74.3776 6 -15.7875 74.3776 TC 25 8 229
1998096S13071 1998 22 SI MM GEMMA 1998-04-15 12:00:00 TS -16.0000 74.1000 reunion main 1787 1763 _____O______O_ -1 -16.0000 74.1000 6 9.90000 -16.0000 74.1000 TC 25 5 236
1998096S13071 1998 22 SI MM GEMMA 1998-04-15 15:00:00 TS -16.0799 73.9274 main 1763 1753 _____P______P_ -1 -16.0799 73.9274 6 -16.0799 73.9274 TC 25 3 251
1998096S13071 1998 22 SI MM GEMMA 1998-04-15 18:00:00 TS -16.1000 73.8000 reunion main 1753 1743 _____O______O_ -1 -16.1000 73.8000 6 9.90000 -16.1000 73.8000 TC 25 3 255
1998096S13071 1998 22 SI MM GEMMA 1998-04-15 21:00:00 TS -16.1500 73.6650 main 1743 1719 _____P______P_ -1 -16.1500 73.6650 6 -16.1500 73.6650 TC 25 3 251
1998096S13071 1998 22 SI MM GEMMA 1998-04-16 00:00:00 TS -16.2000 73.5000 reunion main 1719 1699 _____O______O_ -1 -16.2000 73.5000 6 9.90000 -16.2000 73.5000 TC 25 4 257
1998096S13071 1998 22 SI MM GEMMA 1998-04-16 03:00:00 TS -16.2350 73.2799 main 1699 1665 _____P______P_ -1 -16.2350 73.2799 6 -16.2350 73.2799 TC 25 5 258
1998096S13071 1998 22 SI MM GEMMA 1998-04-16 06:00:00 TS -16.3000 73.0000 reunion main 1665 1631 _____O______O_ -1 -16.3000 73.0000 6 9.90000 -16.3000 73.0000 TC 25 6 252
1998096S13071 1998 22 SI MM GEMMA 1998-04-16 09:00:00 TS -16.4123 72.7022 main 1631 1583 _____P______P_ -1 -16.4123 72.7022 6 -16.4123 72.7022 TC 25 7 246
1998096S13071 1998 22 SI MM GEMMA 1998-04-16 12:00:00 TS -16.6000 72.3000 reunion main 1583 1523 _____O______O_ -1 -16.6000 72.3000 6 9.90000 -16.6000 72.3000 TC 25 10 243
1998096S13071 1998 22 SI MM GEMMA 1998-04-16 15:00:00 TS -16.8756 71.7456 main 1512 1442 _____P______P_ -1 -16.8756 71.7456 6 -16.8756 71.7456 TC 25 13 242
1998096S13071 1998 22 SI MM GEMMA 1998-04-16 18:00:00 TS -17.2000 71.1000 reunion main 1442 _____O______O_ -1 -17.2000 71.1000 6 9.90000 -17.2000 71.1000 TC 25 14 242

About IBTrACS Database

This database is a web-friendly format of International Best Track Archive for Climate Stewardship (IBTrACS), a global best track data archive curated by NOAA dating back to 1842.

Updated: 2021-10-25